sensor_id;sensor_type;location;lat;lon;timestamp;temperature;humidity
22469;DHT22;11401;50.792;4.352;2023-04-08T00:01:06;15.70;58.70
22469;DHT22;11401;50.792;4.352;2023-04-08T00:03:33;15.70;58.50
22469;DHT22;11401;50.792;4.352;2023-04-08T00:06:00;15.70;58.60
22469;DHT22;11401;50.792;4.352;2023-04-08T00:08:29;15.70;58.40
22469;DHT22;11401;50.792;4.352;2023-04-08T00:10:56;15.70;58.20
22469;DHT22;11401;50.792;4.352;2023-04-08T00:13:23;15.70;58.50
22469;DHT22;11401;50.792;4.352;2023-04-08T00:15:50;15.70;58.70
22469;DHT22;11401;50.792;4.352;2023-04-08T00:18:17;15.70;58.60
22469;DHT22;11401;50.792;4.352;2023-04-08T00:20:44;15.60;58.70
22469;DHT22;11401;50.792;4.352;2023-04-08T00:23:11;15.70;58.70
22469;DHT22;11401;50.792;4.352;2023-04-08T00:25:40;15.70;58.70
22469;DHT22;11401;50.792;4.352;2023-04-08T00:28:08;15.70;58.50
22469;DHT22;11401;50.792;4.352;2023-04-08T00:30:35;15.70;58.60
22469;DHT22;11401;50.792;4.352;2023-04-08T00:33:02;15.70;58.70
22469;DHT22;11401;50.792;4.352;2023-04-08T00:35:30;15.70;58.70
22469;DHT22;11401;50.792;4.352;2023-04-08T00:37:57;15.70;58.70
22469;DHT22;11401;50.792;4.352;2023-04-08T00:40:24;15.70;58.70
22469;DHT22;11401;50.792;4.352;2023-04-08T00:42:51;15.70;59.00
22469;DHT22;11401;50.792;4.352;2023-04-08T00:45:18;15.70;58.80
22469;DHT22;11401;50.792;4.352;2023-04-08T00:47:45;15.70;58.90
22469;DHT22;11401;50.792;4.352;2023-04-08T00:50:12;15.70;58.70
22469;DHT22;11401;50.792;4.352;2023-04-08T00:52:40;15.70;58.60
22469;DHT22;11401;50.792;4.352;2023-04-08T00:55:07;15.70;58.70
22469;DHT22;11401;50.792;4.352;2023-04-08T00:57:35;15.70;58.80
22469;DHT22;11401;50.792;4.352;2023-04-08T01:00:03;15.70;58.70
22469;DHT22;11401;50.792;4.352;2023-04-08T01:05:58;15.60;59.00
22469;DHT22;11401;50.792;4.352;2023-04-08T01:08:28;15.60;59.00
22469;DHT22;11401;50.792;4.352;2023-04-08T01:11:01;15.60;59.10
22469;DHT22;11401;50.792;4.352;2023-04-08T01:13:32;15.60;59.40
22469;DHT22;11401;50.792;4.352;2023-04-08T01:16:01;15.60;59.10
22469;DHT22;11401;50.792;4.352;2023-04-08T01:18:29;15.60;59.00
22469;DHT22;11401;50.792;4.352;2023-04-08T01:20:58;15.60;59.00
22469;DHT22;11401;50.792;4.352;2023-04-08T01:23:31;15.60;59.10
22469;DHT22;11401;50.792;4.352;2023-04-08T01:25:58;15.60;59.20
22469;DHT22;11401;50.792;4.352;2023-04-08T01:28:28;15.60;59.30
22469;DHT22;11401;50.792;4.352;2023-04-08T01:30:59;15.60;59.10
22469;DHT22;11401;50.792;4.352;2023-04-08T01:33:28;15.60;59.10
22469;DHT22;11401;50.792;4.352;2023-04-08T01:35:57;15.60;59.10
22469;DHT22;11401;50.792;4.352;2023-04-08T01:38:25;15.60;59.20
22469;DHT22;11401;50.792;4.352;2023-04-08T01:40:53;15.60;59.20
22469;DHT22;11401;50.792;4.352;2023-04-08T01:43:22;15.60;59.20
22469;DHT22;11401;50.792;4.352;2023-04-08T01:45:50;15.60;59.20
22469;DHT22;11401;50.792;4.352;2023-04-08T01:48:20;15.60;59.00
22469;DHT22;11401;50.792;4.352;2023-04-08T01:50:48;15.60;59.10
22469;DHT22;11401;50.792;4.352;2023-04-08T01:53:17;15.50;59.30
22469;DHT22;11401;50.792;4.352;2023-04-08T01:55:44;15.50;59.40
22469;DHT22;11401;50.792;4.352;2023-04-08T01:58:19;15.50;59.60
22469;DHT22;11401;50.792;4.352;2023-04-08T02:00:47;15.50;59.50
22469;DHT22;11401;50.792;4.352;2023-04-08T02:03:17;15.50;59.50
22469;DHT22;11401;50.792;4.352;2023-04-08T02:05:47;15.50;59.40
22469;DHT22;11401;50.792;4.352;2023-04-08T02:08:14;15.50;59.30
22469;DHT22;11401;50.792;4.352;2023-04-08T02:10:41;15.50;59.40
22469;DHT22;11401;50.792;4.352;2023-04-08T02:13:09;15.50;59.30
22469;DHT22;11401;50.792;4.352;2023-04-08T02:15:39;15.50;59.50
22469;DHT22;11401;50.792;4.352;2023-04-08T02:18:16;15.50;59.60
22469;DHT22;11401;50.792;4.352;2023-04-08T02:20:51;15.50;59.40
22469;DHT22;11401;50.792;4.352;2023-04-08T02:23:21;15.50;59.60
22469;DHT22;11401;50.792;4.352;2023-04-08T02:25:52;15.50;59.50
22469;DHT22;11401;50.792;4.352;2023-04-08T02:28:25;15.50;60.20
22469;DHT22;11401;50.792;4.352;2023-04-08T02:30:54;15.50;59.60
22469;DHT22;11401;50.792;4.352;2023-04-08T02:33:23;15.40;59.20
22469;DHT22;11401;50.792;4.352;2023-04-08T02:35:52;15.50;59.30
22469;DHT22;11401;50.792;4.352;2023-04-08T02:38:22;15.50;59.00
22469;DHT22;11401;50.792;4.352;2023-04-08T02:40:50;15.40;59.30
22469;DHT22;11401;50.792;4.352;2023-04-08T02:43:17;15.40;59.50
22469;DHT22;11401;50.792;4.352;2023-04-08T02:45:44;15.40;59.70
22469;DHT22;11401;50.792;4.352;2023-04-08T02:48:11;15.40;59.40
22469;DHT22;11401;50.792;4.352;2023-04-08T02:50:38;15.40;59.60
22469;DHT22;11401;50.792;4.352;2023-04-08T02:53:07;15.40;59.50
22469;DHT22;11401;50.792;4.352;2023-04-08T02:55:35;15.40;59.50
22469;DHT22;11401;50.792;4.352;2023-04-08T02:58:02;15.40;59.40
22469;DHT22;11401;50.792;4.352;2023-04-08T03:00:29;15.40;59.40
22469;DHT22;11401;50.792;4.352;2023-04-08T03:02:57;15.40;59.50
22469;DHT22;11401;50.792;4.352;2023-04-08T03:05:25;15.40;59.50
22469;DHT22;11401;50.792;4.352;2023-04-08T03:07:52;15.40;59.60
22469;DHT22;11401;50.792;4.352;2023-04-08T03:10:19;15.40;59.50
22469;DHT22;11401;50.792;4.352;2023-04-08T03:12:46;15.40;59.40
22469;DHT22;11401;50.792;4.352;2023-04-08T03:15:13;15.40;59.70
22469;DHT22;11401;50.792;4.352;2023-04-08T03:17:40;15.40;59.60
22469;DHT22;11401;50.792;4.352;2023-04-08T03:20:07;15.30;59.80
22469;DHT22;11401;50.792;4.352;2023-04-08T03:22:35;15.30;59.60
22469;DHT22;11401;50.792;4.352;2023-04-08T03:25:02;15.30;59.70
22469;DHT22;11401;50.792;4.352;2023-04-08T03:27:30;15.30;59.80
22469;DHT22;11401;50.792;4.352;2023-04-08T03:29:57;15.40;59.70
22469;DHT22;11401;50.792;4.352;2023-04-08T03:32:24;15.40;59.90
22469;DHT22;11401;50.792;4.352;2023-04-08T03:34:51;15.40;59.70
22469;DHT22;11401;50.792;4.352;2023-04-08T03:37:19;15.40;59.90
22469;DHT22;11401;50.792;4.352;2023-04-08T03:39:46;15.30;59.80
22469;DHT22;11401;50.792;4.352;2023-04-08T03:42:13;15.40;60.00
22469;DHT22;11401;50.792;4.352;2023-04-08T03:44:40;15.40;60.00
22469;DHT22;11401;50.792;4.352;2023-04-08T03:47:06;15.40;60.00
22469;DHT22;11401;50.792;4.352;2023-04-08T03:49:33;15.40;60.00
22469;DHT22;11401;50.792;4.352;2023-04-08T03:52:00;15.40;60.10
22469;DHT22;11401;50.792;4.352;2023-04-08T03:54:27;15.40;60.20
22469;DHT22;11401;50.792;4.352;2023-04-08T03:56:54;15.40;60.30
22469;DHT22;11401;50.792;4.352;2023-04-08T03:59:22;15.40;60.50
22469;DHT22;11401;50.792;4.352;2023-04-08T04:01:49;15.40;60.30
22469;DHT22;11401;50.792;4.352;2023-04-08T04:04:17;15.40;60.40
22469;DHT22;11401;50.792;4.352;2023-04-08T04:06:44;15.30;60.50
22469;DHT22;11401;50.792;4.352;2023-04-08T04:09:11;15.30;60.70
22469;DHT22;11401;50.792;4.352;2023-04-08T04:11:38;15.30;60.80
22469;DHT22;11401;50.792;4.352;2023-04-08T04:14:05;15.30;60.80
22469;DHT22;11401;50.792;4.352;2023-04-08T04:16:32;15.30;61.10
22469;DHT22;11401;50.792;4.352;2023-04-08T04:18:59;15.30;61.00
22469;DHT22;11401;50.792;4.352;2023-04-08T04:21:26;15.30;60.80
22469;DHT22;11401;50.792;4.352;2023-04-08T04:23:53;15.30;60.80
22469;DHT22;11401;50.792;4.352;2023-04-08T04:26:20;15.30;60.70
22469;DHT22;11401;50.792;4.352;2023-04-08T04:28:48;15.30;61.00
22469;DHT22;11401;50.792;4.352;2023-04-08T04:31:20;15.30;60.70
22469;DHT22;11401;50.792;4.352;2023-04-08T04:33:48;15.30;60.80
22469;DHT22;11401;50.792;4.352;2023-04-08T04:36:15;15.30;60.90
22469;DHT22;11401;50.792;4.352;2023-04-08T04:38:42;15.30;61.20
22469;DHT22;11401;50.792;4.352;2023-04-08T04:41:09;15.30;61.10
22469;DHT22;11401;50.792;4.352;2023-04-08T04:43:37;15.30;61.00
22469;DHT22;11401;50.792;4.352;2023-04-08T04:46:04;15.30;61.20
22469;DHT22;11401;50.792;4.352;2023-04-08T04:48:35;15.30;61.20
22469;DHT22;11401;50.792;4.352;2023-04-08T04:51:02;15.30;61.20
22469;DHT22;11401;50.792;4.352;2023-04-08T04:53:30;15.30;61.20
22469;DHT22;11401;50.792;4.352;2023-04-08T04:55:57;15.30;61.30
22469;DHT22;11401;50.792;4.352;2023-04-08T04:58:27;15.20;61.30
22469;DHT22;11401;50.792;4.352;2023-04-08T05:00:54;15.30;61.40
22469;DHT22;11401;50.792;4.352;2023-04-08T05:03:22;15.20;61.50
22469;DHT22;11401;50.792;4.352;2023-04-08T05:05:53;15.20;62.00
22469;DHT22;11401;50.792;4.352;2023-04-08T05:08:20;15.20;62.00
22469;DHT22;11401;50.792;4.352;2023-04-08T05:10:47;15.30;62.80
22469;DHT22;11401;50.792;4.352;2023-04-08T05:13:17;15.30;61.90
22469;DHT22;11401;50.792;4.352;2023-04-08T05:15:44;15.30;61.90
22469;DHT22;11401;50.792;4.352;2023-04-08T05:18:12;15.30;61.80
22469;DHT22;11401;50.792;4.352;2023-04-08T05:20:39;15.40;61.90
22469;DHT22;11401;50.792;4.352;2023-04-08T05:23:06;15.40;61.60
22469;DHT22;11401;50.792;4.352;2023-04-08T05:25:33;15.40;61.70
22469;DHT22;11401;50.792;4.352;2023-04-08T05:28:01;15.40;61.60
22469;DHT22;11401;50.792;4.352;2023-04-08T05:30:28;15.40;61.70
22469;DHT22;11401;50.792;4.352;2023-04-08T05:32:55;15.40;61.50
22469;DHT22;11401;50.792;4.352;2023-04-08T05:35:26;15.40;61.70
22469;DHT22;11401;50.792;4.352;2023-04-08T05:37:53;15.40;61.60
22469;DHT22;11401;50.792;4.352;2023-04-08T05:40:20;15.40;61.60
22469;DHT22;11401;50.792;4.352;2023-04-08T05:42:47;15.40;61.50
22469;DHT22;11401;50.792;4.352;2023-04-08T05:45:14;15.40;61.40
22469;DHT22;11401;50.792;4.352;2023-04-08T05:47:42;15.40;61.60
22469;DHT22;11401;50.792;4.352;2023-04-08T05:50:09;15.40;61.50
22469;DHT22;11401;50.792;4.352;2023-04-08T05:52:40;15.40;61.40
22469;DHT22;11401;50.792;4.352;2023-04-08T05:55:08;15.40;61.50
22469;DHT22;11401;50.792;4.352;2023-04-08T05:57:35;15.40;61.50
22469;DHT22;11401;50.792;4.352;2023-04-08T06:00:04;15.40;61.30
22469;DHT22;11401;50.792;4.352;2023-04-08T06:02:32;15.50;61.50
22469;DHT22;11401;50.792;4.352;2023-04-08T06:04:59;15.50;61.30
22469;DHT22;11401;50.792;4.352;2023-04-08T06:07:26;15.50;61.30
22469;DHT22;11401;50.792;4.352;2023-04-08T06:09:54;15.40;61.30
22469;DHT22;11401;50.792;4.352;2023-04-08T06:12:21;15.50;61.40
22469;DHT22;11401;50.792;4.352;2023-04-08T06:14:53;15.50;61.50
22469;DHT22;11401;50.792;4.352;2023-04-08T06:17:20;15.50;61.20
22469;DHT22;11401;50.792;4.352;2023-04-08T06:19:47;15.50;61.40
22469;DHT22;11401;50.792;4.352;2023-04-08T06:22:14;15.50;61.10
22469;DHT22;11401;50.792;4.352;2023-04-08T06:24:41;15.50;61.30
22469;DHT22;11401;50.792;4.352;2023-04-08T06:27:08;15.50;61.20
22469;DHT22;11401;50.792;4.352;2023-04-08T06:29:35;15.50;60.90
22469;DHT22;11401;50.792;4.352;2023-04-08T06:32:02;15.50;60.90
22469;DHT22;11401;50.792;4.352;2023-04-08T06:34:29;15.50;61.40
22469;DHT22;11401;50.792;4.352;2023-04-08T06:36:56;15.50;61.10
22469;DHT22;11401;50.792;4.352;2023-04-08T06:39:23;15.60;61.00
22469;DHT22;11401;50.792;4.352;2023-04-08T06:41:50;15.60;60.70
22469;DHT22;11401;50.792;4.352;2023-04-08T06:44:31;15.60;60.80
22469;DHT22;11401;50.792;4.352;2023-04-08T06:46:58;15.60;60.70
22469;DHT22;11401;50.792;4.352;2023-04-08T06:49:25;15.60;60.70
22469;DHT22;11401;50.792;4.352;2023-04-08T06:51:53;15.60;61.00
22469;DHT22;11401;50.792;4.352;2023-04-08T06:54:20;15.70;60.80
22469;DHT22;11401;50.792;4.352;2023-04-08T06:56:47;15.60;60.70
22469;DHT22;11401;50.792;4.352;2023-04-08T06:59:14;15.60;60.70
22469;DHT22;11401;50.792;4.352;2023-04-08T07:01:41;15.60;60.60
22469;DHT22;11401;50.792;4.352;2023-04-08T07:04:08;15.60;60.80
22469;DHT22;11401;50.792;4.352;2023-04-08T07:06:35;15.60;60.50
22469;DHT22;11401;50.792;4.352;2023-04-08T07:09:02;15.80;60.50
22469;DHT22;11401;50.792;4.352;2023-04-08T07:11:30;15.70;60.40
22469;DHT22;11401;50.792;4.352;2023-04-08T07:13:57;15.80;60.30
22469;DHT22;11401;50.792;4.352;2023-04-08T07:16:24;15.70;60.10
22469;DHT22;11401;50.792;4.352;2023-04-08T07:18:51;15.70;61.00
22469;DHT22;11401;50.792;4.352;2023-04-08T07:21:19;15.80;60.10
22469;DHT22;11401;50.792;4.352;2023-04-08T07:23:46;15.70;60.10
22469;DHT22;11401;50.792;4.352;2023-04-08T07:26:13;15.70;60.20
22469;DHT22;11401;50.792;4.352;2023-04-08T07:28:40;15.70;59.80
22469;DHT22;11401;50.792;4.352;2023-04-08T07:31:15;15.70;60.30
22469;DHT22;11401;50.792;4.352;2023-04-08T07:33:43;15.80;60.20
22469;DHT22;11401;50.792;4.352;2023-04-08T07:36:11;15.80;60.00
22469;DHT22;11401;50.792;4.352;2023-04-08T07:38:39;15.80;60.10
22469;DHT22;11401;50.792;4.352;2023-04-08T07:41:06;15.80;59.80
22469;DHT22;11401;50.792;4.352;2023-04-08T07:43:34;15.80;59.90
22469;DHT22;11401;50.792;4.352;2023-04-08T07:46:04;15.70;59.40
22469;DHT22;11401;50.792;4.352;2023-04-08T07:48:32;15.70;59.90
22469;DHT22;11401;50.792;4.352;2023-04-08T07:51:04;15.70;59.70
22469;DHT22;11401;50.792;4.352;2023-04-08T07:53:36;15.70;59.70
22469;DHT22;11401;50.792;4.352;2023-04-08T07:56:10;15.80;59.80
22469;DHT22;11401;50.792;4.352;2023-04-08T07:58:38;15.80;59.30
22469;DHT22;11401;50.792;4.352;2023-04-08T08:01:26;15.80;58.80
22469;DHT22;11401;50.792;4.352;2023-04-08T08:03:57;15.60;59.30
22469;DHT22;11401;50.792;4.352;2023-04-08T08:06:24;15.60;59.60
22469;DHT22;11401;50.792;4.352;2023-04-08T08:08:52;15.60;59.40
22469;DHT22;11401;50.792;4.352;2023-04-08T08:11:18;15.50;59.90
22469;DHT22;11401;50.792;4.352;2023-04-08T08:13:47;15.50;60.00
22469;DHT22;11401;50.792;4.352;2023-04-08T08:16:14;15.40;60.00
22469;DHT22;11401;50.792;4.352;2023-04-08T08:18:41;15.40;60.50
22469;DHT22;11401;50.792;4.352;2023-04-08T08:21:08;15.30;60.40
22469;DHT22;11401;50.792;4.352;2023-04-08T08:23:36;15.30;60.50
22469;DHT22;11401;50.792;4.352;2023-04-08T08:26:06;15.30;60.60
22469;DHT22;11401;50.792;4.352;2023-04-08T08:28:36;15.40;61.10
22469;DHT22;11401;50.792;4.352;2023-04-08T08:31:03;15.40;61.10
22469;DHT22;11401;50.792;4.352;2023-04-08T08:33:32;15.40;60.30
22469;DHT22;11401;50.792;4.352;2023-04-08T08:36:00;15.40;60.30
22469;DHT22;11401;50.792;4.352;2023-04-08T08:38:28;15.20;58.90
22469;DHT22;11401;50.792;4.352;2023-04-08T08:40:56;15.20;60.60
22469;DHT22;11401;50.792;4.352;2023-04-08T08:43:27;15.30;60.30
22469;DHT22;11401;50.792;4.352;2023-04-08T08:45:54;15.40;60.30
22469;DHT22;11401;50.792;4.352;2023-04-08T08:48:22;15.40;59.50
22469;DHT22;11401;50.792;4.352;2023-04-08T08:50:50;15.40;58.90
22469;DHT22;11401;50.792;4.352;2023-04-08T08:53:17;15.30;59.80
22469;DHT22;11401;50.792;4.352;2023-04-08T08:55:46;15.40;60.30
22469;DHT22;11401;50.792;4.352;2023-04-08T08:58:16;15.40;59.80
22469;DHT22;11401;50.792;4.352;2023-04-08T09:00:43;15.40;59.60
22469;DHT22;11401;50.792;4.352;2023-04-08T09:03:18;15.40;59.50
22469;DHT22;11401;50.792;4.352;2023-04-08T09:06:00;15.50;60.10
22469;DHT22;11401;50.792;4.352;2023-04-08T09:08:34;15.50;59.40
22469;DHT22;11401;50.792;4.352;2023-04-08T09:11:14;15.50;59.40
22469;DHT22;11401;50.792;4.352;2023-04-08T09:13:43;15.40;59.50
22469;DHT22;11401;50.792;4.352;2023-04-08T09:16:15;15.40;59.60
22469;DHT22;11401;50.792;4.352;2023-04-08T09:18:45;15.40;59.70
22469;DHT22;11401;50.792;4.352;2023-04-08T09:21:14;15.50;59.70
22469;DHT22;11401;50.792;4.352;2023-04-08T09:23:48;15.40;59.50
22469;DHT22;11401;50.792;4.352;2023-04-08T09:26:21;15.40;59.20
22469;DHT22;11401;50.792;4.352;2023-04-08T09:29:03;15.40;59.50
22469;DHT22;11401;50.792;4.352;2023-04-08T09:32:00;15.40;59.90
22469;DHT22;11401;50.792;4.352;2023-04-08T09:34:28;15.40;59.60
22469;DHT22;11401;50.792;4.352;2023-04-08T09:36:58;15.30;59.10
22469;DHT22;11401;50.792;4.352;2023-04-08T09:39:25;15.10;59.10
22469;DHT22;11401;50.792;4.352;2023-04-08T09:41:53;14.90;60.00
22469;DHT22;11401;50.792;4.352;2023-04-08T09:44:25;14.90;60.60
22469;DHT22;11401;50.792;4.352;2023-04-08T09:47:09;14.90;61.40
22469;DHT22;11401;50.792;4.352;2023-04-08T09:49:50;14.70;60.30
22469;DHT22;11401;50.792;4.352;2023-04-08T09:52:24;14.60;60.90
22469;DHT22;11401;50.792;4.352;2023-04-08T09:57:51;14.50;61.50
22469;DHT22;11401;50.792;4.352;2023-04-08T10:00:27;14.50;61.90
22469;DHT22;11401;50.792;4.352;2023-04-08T10:05:46;14.50;61.90
22469;DHT22;11401;50.792;4.352;2023-04-08T10:08:14;14.60;61.60
22469;DHT22;11401;50.792;4.352;2023-04-08T10:10:42;14.60;61.60
22469;DHT22;11401;50.792;4.352;2023-04-08T10:13:11;14.60;62.10
22469;DHT22;11401;50.792;4.352;2023-04-08T10:15:39;14.70;62.60
22469;DHT22;11401;50.792;4.352;2023-04-08T10:23:03;14.60;63.20
22469;DHT22;11401;50.792;4.352;2023-04-08T10:30:50;15.20;61.30
22469;DHT22;11401;50.792;4.352;2023-04-08T10:33:30;15.60;59.90
22469;DHT22;11401;50.792;4.352;2023-04-08T10:36:11;15.70;58.80
22469;DHT22;11401;50.792;4.352;2023-04-08T10:38:39;15.70;58.40
22469;DHT22;11401;50.792;4.352;2023-04-08T10:41:11;15.80;58.50
22469;DHT22;11401;50.792;4.352;2023-04-08T10:43:47;15.70;58.20
22469;DHT22;11401;50.792;4.352;2023-04-08T10:46:14;15.60;58.10
22469;DHT22;11401;50.792;4.352;2023-04-08T10:48:43;15.60;58.90
22469;DHT22;11401;50.792;4.352;2023-04-08T10:51:10;15.70;58.30
22469;DHT22;11401;50.792;4.352;2023-04-08T10:53:38;15.80;58.90
22469;DHT22;11401;50.792;4.352;2023-04-08T10:56:13;15.90;58.80
22469;DHT22;11401;50.792;4.352;2023-04-08T10:58:52;15.90;58.50
22469;DHT22;11401;50.792;4.352;2023-04-08T11:01:21;16.00;57.70
22469;DHT22;11401;50.792;4.352;2023-04-08T11:03:48;16.00;57.70
22469;DHT22;11401;50.792;4.352;2023-04-08T11:06:16;15.90;57.50
22469;DHT22;11401;50.792;4.352;2023-04-08T11:08:44;15.80;57.60
22469;DHT22;11401;50.792;4.352;2023-04-08T11:11:11;15.80;57.50
22469;DHT22;11401;50.792;4.352;2023-04-08T11:13:43;15.80;58.10
22469;DHT22;11401;50.792;4.352;2023-04-08T11:16:20;15.80;57.30
22469;DHT22;11401;50.792;4.352;2023-04-08T11:18:49;15.80;57.50
22469;DHT22;11401;50.792;4.352;2023-04-08T11:21:16;15.80;57.10
22469;DHT22;11401;50.792;4.352;2023-04-08T11:23:44;15.80;57.60
22469;DHT22;11401;50.792;4.352;2023-04-08T11:26:12;15.80;57.10
22469;DHT22;11401;50.792;4.352;2023-04-08T11:28:41;15.80;56.50
22469;DHT22;11401;50.792;4.352;2023-04-08T11:31:10;15.60;56.30
22469;DHT22;11401;50.792;4.352;2023-04-08T11:33:37;15.60;56.90
22469;DHT22;11401;50.792;4.352;2023-04-08T11:36:11;15.50;57.10
22469;DHT22;11401;50.792;4.352;2023-04-08T11:38:39;15.60;57.00
22469;DHT22;11401;50.792;4.352;2023-04-08T11:41:10;15.60;57.20
22469;DHT22;11401;50.792;4.352;2023-04-08T11:43:37;15.80;56.80
22469;DHT22;11401;50.792;4.352;2023-04-08T11:46:10;15.80;56.20
22469;DHT22;11401;50.792;4.352;2023-04-08T11:48:38;15.80;56.20
22469;DHT22;11401;50.792;4.352;2023-04-08T11:51:06;16.00;56.30
22469;DHT22;11401;50.792;4.352;2023-04-08T11:53:38;16.00;57.50
22469;DHT22;11401;50.792;4.352;2023-04-08T11:56:15;16.10;56.40
22469;DHT22;11401;50.792;4.352;2023-04-08T11:58:43;16.30;57.20
22469;DHT22;11401;50.792;4.352;2023-04-08T12:01:10;16.40;56.40
22469;DHT22;11401;50.792;4.352;2023-04-08T12:03:37;16.30;55.00
22469;DHT22;11401;50.792;4.352;2023-04-08T12:06:04;16.30;56.10
22469;DHT22;11401;50.792;4.352;2023-04-08T12:08:34;16.40;55.70
22469;DHT22;11401;50.792;4.352;2023-04-08T12:11:01;16.50;55.50
22469;DHT22;11401;50.792;4.352;2023-04-08T12:13:45;16.40;54.60
22469;DHT22;11401;50.792;4.352;2023-04-08T12:16:12;16.50;55.80
22469;DHT22;11401;50.792;4.352;2023-04-08T12:18:40;16.60;56.10
22469;DHT22;11401;50.792;4.352;2023-04-08T12:21:07;16.70;55.50
22469;DHT22;11401;50.792;4.352;2023-04-08T12:23:34;16.80;55.20
22469;DHT22;11401;50.792;4.352;2023-04-08T12:26:01;16.90;54.80
22469;DHT22;11401;50.792;4.352;2023-04-08T12:28:29;16.90;53.90
22469;DHT22;11401;50.792;4.352;2023-04-08T12:30:56;16.80;54.30
22469;DHT22;11401;50.792;4.352;2023-04-08T12:33:23;16.60;53.80
22469;DHT22;11401;50.792;4.352;2023-04-08T12:35:50;16.20;54.90
22469;DHT22;11401;50.792;4.352;2023-04-08T12:38:18;16.20;56.60
22469;DHT22;11401;50.792;4.352;2023-04-08T12:40:44;16.30;56.50
22469;DHT22;11401;50.792;4.352;2023-04-08T12:43:13;16.30;56.20
22469;DHT22;11401;50.792;4.352;2023-04-08T12:45:40;16.40;56.40
22469;DHT22;11401;50.792;4.352;2023-04-08T12:48:08;16.40;56.80
22469;DHT22;11401;50.792;4.352;2023-04-08T12:50:35;16.40;56.60
22469;DHT22;11401;50.792;4.352;2023-04-08T12:53:02;16.40;56.60
22469;DHT22;11401;50.792;4.352;2023-04-08T12:55:29;16.50;56.80
22469;DHT22;11401;50.792;4.352;2023-04-08T12:57:56;16.50;56.70
22469;DHT22;11401;50.792;4.352;2023-04-08T13:00:23;16.50;56.00
22469;DHT22;11401;50.792;4.352;2023-04-08T13:02:50;16.50;55.40
22469;DHT22;11401;50.792;4.352;2023-04-08T13:05:17;16.50;55.50
22469;DHT22;11401;50.792;4.352;2023-04-08T13:07:58;16.50;55.40
22469;DHT22;11401;50.792;4.352;2023-04-08T13:10:25;16.50;55.90
22469;DHT22;11401;50.792;4.352;2023-04-08T13:12:52;16.50;56.10
22469;DHT22;11401;50.792;4.352;2023-04-08T13:15:20;16.60;56.30
22469;DHT22;11401;50.792;4.352;2023-04-08T13:17:47;16.60;56.00
22469;DHT22;11401;50.792;4.352;2023-04-08T13:20:14;16.60;55.50
22469;DHT22;11401;50.792;4.352;2023-04-08T13:22:42;16.60;55.40
22469;DHT22;11401;50.792;4.352;2023-04-08T13:25:09;16.60;55.10
22469;DHT22;11401;50.792;4.352;2023-04-08T13:27:35;16.60;55.50
22469;DHT22;11401;50.792;4.352;2023-04-08T13:30:03;16.60;55.80
22469;DHT22;11401;50.792;4.352;2023-04-08T13:32:30;16.60;56.40
22469;DHT22;11401;50.792;4.352;2023-04-08T13:34:57;16.60;55.90
22469;DHT22;11401;50.792;4.352;2023-04-08T13:37:24;16.60;56.60
22469;DHT22;11401;50.792;4.352;2023-04-08T13:39:51;16.70;56.50
22469;DHT22;11401;50.792;4.352;2023-04-08T13:42:18;16.70;55.40
22469;DHT22;11401;50.792;4.352;2023-04-08T13:44:45;16.70;55.50
22469;DHT22;11401;50.792;4.352;2023-04-08T13:47:13;16.70;54.50
22469;DHT22;11401;50.792;4.352;2023-04-08T13:49:40;16.80;57.40
22469;DHT22;11401;50.792;4.352;2023-04-08T13:52:07;16.80;55.80
22469;DHT22;11401;50.792;4.352;2023-04-08T13:54:34;16.90;56.70
22469;DHT22;11401;50.792;4.352;2023-04-08T13:57:01;16.90;56.20
22469;DHT22;11401;50.792;4.352;2023-04-08T13:59:28;16.90;55.60
22469;DHT22;11401;50.792;4.352;2023-04-08T14:01:56;16.90;56.20
22469;DHT22;11401;50.792;4.352;2023-04-08T14:04:23;17.00;57.00
22469;DHT22;11401;50.792;4.352;2023-04-08T14:06:50;17.10;56.10
22469;DHT22;11401;50.792;4.352;2023-04-08T14:09:19;17.00;54.80
22469;DHT22;11401;50.792;4.352;2023-04-08T14:11:46;17.10;55.50
22469;DHT22;11401;50.792;4.352;2023-04-08T14:14:13;17.10;56.10
22469;DHT22;11401;50.792;4.352;2023-04-08T14:16:40;17.20;56.10
22469;DHT22;11401;50.792;4.352;2023-04-08T14:19:08;17.10;55.20
22469;DHT22;11401;50.792;4.352;2023-04-08T14:21:35;17.20;55.00
22469;DHT22;11401;50.792;4.352;2023-04-08T14:24:04;17.20;55.30
22469;DHT22;11401;50.792;4.352;2023-04-08T14:26:31;17.10;55.60
22469;DHT22;11401;50.792;4.352;2023-04-08T14:29:03;17.20;54.50
22469;DHT22;11401;50.792;4.352;2023-04-08T14:31:31;17.20;56.60
22469;DHT22;11401;50.792;4.352;2023-04-08T14:33:59;17.30;55.80
22469;DHT22;11401;50.792;4.352;2023-04-08T14:36:26;17.40;56.30
22469;DHT22;11401;50.792;4.352;2023-04-08T14:38:54;17.40;55.50
22469;DHT22;11401;50.792;4.352;2023-04-08T14:41:21;17.60;57.40
22469;DHT22;11401;50.792;4.352;2023-04-08T14:43:48;17.60;54.00
22469;DHT22;11401;50.792;4.352;2023-04-08T14:46:15;17.70;55.90
22469;DHT22;11401;50.792;4.352;2023-04-08T14:48:43;17.90;57.80
22469;DHT22;11401;50.792;4.352;2023-04-08T14:51:10;18.00;56.60
22469;DHT22;11401;50.792;4.352;2023-04-08T14:53:37;18.10;56.50
22469;DHT22;11401;50.792;4.352;2023-04-08T14:56:06;18.10;55.10
22469;DHT22;11401;50.792;4.352;2023-04-08T14:58:34;18.20;57.00
22469;DHT22;11401;50.792;4.352;2023-04-08T15:01:01;18.30;57.80
22469;DHT22;11401;50.792;4.352;2023-04-08T15:03:29;18.30;57.40
22469;DHT22;11401;50.792;4.352;2023-04-08T15:05:56;18.30;56.30
22469;DHT22;11401;50.792;4.352;2023-04-08T15:08:24;18.40;56.50
22469;DHT22;11401;50.792;4.352;2023-04-08T15:10:51;18.40;55.40
22469;DHT22;11401;50.792;4.352;2023-04-08T15:13:18;18.40;54.60
22469;DHT22;11401;50.792;4.352;2023-04-08T15:15:45;18.30;54.60
22469;DHT22;11401;50.792;4.352;2023-04-08T15:18:12;18.30;55.00
22469;DHT22;11401;50.792;4.352;2023-04-08T15:20:39;18.30;54.60
22469;DHT22;11401;50.792;4.352;2023-04-08T15:23:07;18.20;53.70
22469;DHT22;11401;50.792;4.352;2023-04-08T15:25:34;18.10;53.20
22469;DHT22;11401;50.792;4.352;2023-04-08T15:28:01;18.00;53.70
22469;DHT22;11401;50.792;4.352;2023-04-08T15:30:28;17.90;53.40
22469;DHT22;11401;50.792;4.352;2023-04-08T15:33:04;17.90;52.90
22469;DHT22;11401;50.792;4.352;2023-04-08T15:35:31;17.90;53.60
22469;DHT22;11401;50.792;4.352;2023-04-08T15:37:59;17.80;53.00
22469;DHT22;11401;50.792;4.352;2023-04-08T15:40:26;17.80;52.60
22469;DHT22;11401;50.792;4.352;2023-04-08T15:42:54;17.80;53.80
22469;DHT22;11401;50.792;4.352;2023-04-08T15:45:21;17.80;54.10
22469;DHT22;11401;50.792;4.352;2023-04-08T15:47:48;17.90;53.50
22469;DHT22;11401;50.792;4.352;2023-04-08T15:50:15;17.80;53.70
22469;DHT22;11401;50.792;4.352;2023-04-08T15:52:43;17.90;54.40
22469;DHT22;11401;50.792;4.352;2023-04-08T15:55:10;17.90;53.10
22469;DHT22;11401;50.792;4.352;2023-04-08T15:57:37;17.90;52.70